createdAt,value
2018-10-05T00:02:22.718Z,101905.38
2018-10-05T00:04:59.671Z,101909.63
2018-10-05T00:07:30.980Z,101915.41
2018-10-05T00:10:03.675Z,101912.94
2018-10-05T00:12:32.738Z,101909.48
2018-10-05T00:15:10.054Z,101912.70
2018-10-05T00:17:40.016Z,101916.34
2018-10-05T00:20:12.218Z,101908.17
2018-10-05T00:22:49.475Z,101904.23
2018-10-05T00:28:12.581Z,101901.97
2018-10-05T00:30:43.569Z,101895.40
2018-10-05T00:33:12.571Z,101899.34
2018-10-05T00:35:53.351Z,101899.44
2018-10-05T00:38:28.582Z,101898.41
2018-10-05T00:41:00.219Z,101897.23
2018-10-05T00:43:31.514Z,101894.47
2018-10-05T00:46:02.535Z,101896.03
2018-10-05T00:48:31.421Z,101892.06
2018-10-05T00:51:00.417Z,101891.13
2018-10-05T00:53:34.958Z,101888.00
2018-10-05T00:56:17.458Z,101890.48
2018-10-05T00:58:52.453Z,101882.61
2018-10-05T01:01:21.343Z,101876.41
2018-10-05T01:03:54.044Z,101880.02
2018-10-05T01:06:27.879Z,101878.55
2018-10-05T01:09:05.181Z,101873.48
2018-10-05T01:11:34.330Z,101868.48
2018-10-05T01:14:04.877Z,101865.88
2018-10-05T01:16:35.324Z,101865.88
2018-10-05T01:19:04.311Z,101865.56
2018-10-05T01:21:33.219Z,101863.61
2018-10-05T01:24:03.260Z,101861.94
2018-10-05T01:26:33.636Z,101864.32
2018-10-05T01:29:03.057Z,101858.64
2018-10-05T01:31:32.445Z,101858.31
2018-10-05T01:34:04.163Z,101850.73
2018-10-05T01:36:38.350Z,101847.11
2018-10-05T01:39:13.105Z,101845.87
2018-10-05T01:41:44.908Z,101840.58
2018-10-05T01:44:29.867Z,101841.29
2018-10-05T01:47:05.746Z,101846.99
2018-10-05T01:49:36.195Z,101838.48
2018-10-05T01:52:05.602Z,101834.97
2018-10-05T01:54:35.040Z,101830.61
2018-10-05T01:57:04.604Z,101824.61
2018-10-05T02:02:35.408Z,101822.72
2018-10-05T02:05:04.903Z,101820.34
2018-10-05T02:07:34.309Z,101812.15
2018-10-05T02:10:06.750Z,101815.55
2018-10-05T02:12:36.396Z,101805.19
2018-10-05T02:15:08.003Z,101811.61
2018-10-05T02:17:41.670Z,101807.08
2018-10-05T02:20:17.784Z,101808.10
2018-10-05T02:22:47.221Z,101803.20
2018-10-05T02:25:24.144Z,101797.00
2018-10-05T02:27:53.044Z,101795.86
2018-10-05T02:30:24.169Z,101785.58
2018-10-05T02:32:53.125Z,101790.36
2018-10-05T02:35:21.942Z,101792.42
2018-10-05T02:37:52.037Z,101788.97
2018-10-05T02:40:21.001Z,101785.34
2018-10-05T02:42:50.092Z,101781.73
2018-10-05T02:45:19.088Z,101779.53
2018-10-05T02:47:47.977Z,101785.03
2018-10-05T02:50:16.856Z,101778.52
2018-10-05T02:52:45.751Z,101782.87
2018-10-05T02:55:14.721Z,101785.14
2018-10-05T02:57:48.940Z,101780.28
2018-10-05T03:00:35.524Z,101778.29
2018-10-05T03:03:04.478Z,101775.59
2018-10-05T03:05:39.181Z,101771.34
2018-10-05T03:08:08.066Z,101772.36
2018-10-05T03:10:36.971Z,101770.62
2018-10-05T03:13:05.863Z,101766.48
2018-10-05T03:15:46.685Z,101767.83
2018-10-05T03:18:19.571Z,101764.81
2018-10-05T03:21:06.078Z,101762.75
2018-10-05T03:23:36.141Z,101760.13
2018-10-05T03:26:06.137Z,101759.73
2018-10-05T03:28:35.055Z,101756.61
2018-10-05T03:31:06.009Z,101753.81
2018-10-05T03:33:35.012Z,101751.64
2018-10-05T03:36:03.968Z,101753.09
2018-10-05T03:38:32.967Z,101745.12
2018-10-05T03:41:11.604Z,101744.58
2018-10-05T03:43:40.503Z,101744.58
2018-10-05T03:46:21.243Z,101741.89
2018-10-05T03:48:56.253Z,101738.05
2018-10-05T03:51:33.289Z,101734.30
2018-10-05T03:54:12.979Z,101741.45
2018-10-05T03:56:42.926Z,101735.10
2018-10-05T03:59:12.906Z,101745.50
2018-10-05T04:01:48.867Z,101741.67
2018-10-05T04:04:34.609Z,101740.64
2018-10-05T04:07:08.361Z,101730.26
2018-10-05T04:09:54.122Z,101730.85
2018-10-05T04:12:23.502Z,101732.13
2018-10-05T04:14:56.949Z,101725.46
2018-10-05T04:17:26.847Z,101725.46
2018-10-05T04:20:14.573Z,101716.56
2018-10-05T04:22:45.533Z,101718.02
2018-10-05T04:25:30.892Z,101712.34
2018-10-05T04:28:02.889Z,101707.66
2018-10-05T04:30:42.228Z,101707.91
2018-10-05T04:33:11.230Z,101704.86
2018-10-05T04:35:44.614Z,101701.64
2018-10-05T04:38:19.223Z,101701.48
2018-10-05T04:40:48.249Z,101694.19
2018-10-05T04:43:21.038Z,101690.15
2018-10-05T04:45:50.986Z,101683.80
2018-10-05T04:48:22.770Z,101682.28
2018-10-05T04:50:54.979Z,101677.72
2018-10-05T04:53:29.397Z,101674.09
2018-10-05T04:56:11.658Z,101680.40
2018-10-05T04:58:41.586Z,101682.70
2018-10-05T05:01:11.470Z,101679.48
2018-10-05T05:03:42.466Z,101679.87
2018-10-05T05:06:12.482Z,101677.81
2018-10-05T05:08:41.447Z,101679.30
2018-10-05T05:11:20.127Z,101679.94
2018-10-05T05:13:51.176Z,101675.44
2018-10-05T05:16:25.937Z,101681.38
2018-10-05T05:18:58.919Z,101682.06
2018-10-05T05:21:27.868Z,101678.97
2018-10-05T05:23:57.232Z,101673.69
2018-10-05T05:26:33.755Z,101673.69
2018-10-05T05:29:02.727Z,101671.42
2018-10-05T05:31:31.713Z,101665.89
2018-10-05T05:34:06.038Z,101669.38
2018-10-05T05:36:34.906Z,101668.38
2018-10-05T05:39:06.765Z,101669.44
2018-10-05T05:41:36.677Z,101673.90
2018-10-05T05:44:10.323Z,101670.50
2018-10-05T05:46:51.978Z,101663.83
2018-10-05T05:49:20.838Z,101661.66
2018-10-05T05:51:53.890Z,101661.98
2018-10-05T05:54:22.842Z,101665.50
2018-10-05T05:56:53.753Z,101657.63
2018-10-05T05:59:22.721Z,101661.99
2018-10-05T06:01:59.466Z,101662.80
2018-10-05T06:04:31.959Z,101663.93
2018-10-05T06:07:24.469Z,101662.48
2018-10-05T06:09:54.547Z,101663.13
2018-10-05T06:12:23.446Z,101662.09
2018-10-05T06:14:52.345Z,101664.36
2018-10-05T06:17:24.928Z,101663.45
2018-10-05T06:19:54.881Z,101663.23
2018-10-05T06:22:23.966Z,101661.67
2018-10-05T06:24:52.817Z,101660.22
2018-10-05T06:27:22.825Z,101661.78
2018-10-05T06:29:52.801Z,101661.42
2018-10-05T06:32:21.797Z,101668.52
2018-10-05T06:34:54.363Z,101665.22
2018-10-05T06:37:27.037Z,101671.07
2018-10-05T06:40:00.566Z,101661.53
2018-10-05T06:42:30.635Z,101662.77
2018-10-05T06:45:09.616Z,101663.30
2018-10-05T06:47:38.647Z,101663.83
2018-10-05T06:50:15.961Z,101663.93
2018-10-05T06:52:52.588Z,101672.02
2018-10-05T06:55:21.458Z,101667.37
2018-10-05T06:57:56.887Z,101666.83
2018-10-05T07:00:25.844Z,101666.00
2018-10-05T07:02:55.002Z,101669.00
2018-10-05T07:05:24.019Z,101668.98
2018-10-05T07:07:53.105Z,101669.72
2018-10-05T07:10:42.311Z,101665.88
2018-10-05T07:13:11.402Z,101673.14
2018-10-05T07:15:41.297Z,101667.64
2018-10-05T07:18:28.029Z,101668.97
2018-10-05T07:20:57.073Z,101672.61
2018-10-05T07:23:25.954Z,101667.70
2018-10-05T07:25:54.835Z,101669.22
2018-10-05T07:28:30.160Z,101667.03
2018-10-05T07:33:53.818Z,101674.25
2018-10-05T07:36:32.900Z,101673.44
2018-10-05T07:39:01.887Z,101671.15
2018-10-05T07:41:31.237Z,101668.73
2018-10-05T07:44:01.170Z,101670.05
2018-10-05T07:46:30.045Z,101660.36
2018-10-05T07:49:05.213Z,101660.64
2018-10-05T07:51:34.126Z,101658.34
2018-10-05T07:54:06.255Z,101654.06
2018-10-05T07:56:35.249Z,101659.38
2018-10-05T07:59:10.000Z,101662.58
2018-10-05T08:01:44.458Z,101660.09
2018-10-05T08:04:16.661Z,101662.56
2018-10-05T08:06:46.639Z,101659.08
2018-10-05T08:09:20.282Z,101665.19
2018-10-05T08:11:53.276Z,101656.80
2018-10-05T08:14:33.359Z,101661.16
2018-10-05T08:17:18.767Z,101670.20
2018-10-05T08:19:51.977Z,101664.87
2018-10-05T08:22:27.028Z,101665.92
2018-10-05T08:25:06.875Z,101657.66
2018-10-05T08:27:38.049Z,101658.59
2018-10-05T08:30:18.985Z,101656.19
2018-10-05T08:33:01.082Z,101655.45
2018-10-05T08:35:32.585Z,101649.88
2018-10-05T08:38:01.613Z,101650.27
2018-10-05T08:40:35.377Z,101652.42
2018-10-05T08:43:04.975Z,101642.05
2018-10-05T08:45:47.917Z,101634.80
2018-10-05T08:48:17.848Z,101630.69
2018-10-05T08:50:46.828Z,101623.35
2018-10-05T08:53:15.807Z,101625.97
2018-10-05T08:55:44.753Z,101627.33
2018-10-05T08:58:19.510Z,101622.58
2018-10-05T09:00:57.252Z,101628.14
2018-10-05T09:03:29.492Z,101622.38
2018-10-05T09:06:00.505Z,101616.61
2018-10-05T09:08:30.432Z,101613.15
2018-10-05T09:10:59.447Z,101619.45
2018-10-05T09:13:31.688Z,101609.28
2018-10-05T09:16:03.109Z,101597.88
2018-10-05T09:18:37.849Z,101603.16
2018-10-05T09:21:06.926Z,101597.81
2018-10-05T09:23:36.063Z,101595.28
2018-10-05T09:26:27.140Z,101592.14
2018-10-05T09:28:56.069Z,101591.45
2018-10-05T09:31:25.987Z,101590.09
2018-10-05T09:33:56.957Z,101590.92
2018-10-05T09:36:26.926Z,101585.78
2018-10-05T09:38:57.830Z,101581.80
2018-10-05T09:41:26.782Z,101576.17
2018-10-05T09:43:55.768Z,101568.19
2018-10-05T09:46:25.805Z,101554.77
2018-10-05T09:48:54.767Z,101554.47
2018-10-05T09:51:24.718Z,101548.17
2018-10-05T09:54:01.699Z,101542.34
2018-10-05T09:56:35.187Z,101534.65
2018-10-05T09:59:05.183Z,101535.47
2018-10-05T10:02:55.831Z,101539.22
2018-10-05T10:05:25.785Z,101536.34
2018-10-05T10:07:55.819Z,101525.00
2018-10-05T10:10:30.551Z,101527.11
2018-10-05T10:13:00.555Z,101521.63
2018-10-05T10:15:30.622Z,101525.48
2018-10-05T10:18:00.688Z,101523.12
2018-10-05T10:20:41.300Z,101522.10
2018-10-05T10:23:11.284Z,101516.50
2018-10-05T10:25:40.254Z,101513.22
2018-10-05T10:28:15.276Z,101512.36
2018-10-05T10:30:47.985Z,101504.55
2018-10-05T10:33:39.832Z,101502.06
2018-10-05T10:36:09.169Z,101497.14
2018-10-05T10:38:45.935Z,101488.95
2018-10-05T10:41:20.563Z,101486.78
2018-10-05T10:43:53.933Z,101486.41
2018-10-05T10:46:24.463Z,101483.66
2018-10-05T10:48:59.967Z,101482.25
2018-10-05T10:51:34.548Z,101480.56
2018-10-05T10:54:15.431Z,101472.62
2018-10-05T10:56:44.953Z,101474.28
2018-10-05T10:59:14.757Z,101465.66
2018-10-05T11:01:44.211Z,101454.91
2018-10-05T11:04:18.076Z,101447.64
2018-10-05T11:06:48.760Z,101441.97
2018-10-05T11:09:18.996Z,101439.98
2018-10-05T11:11:50.311Z,101430.13
2018-10-05T11:14:20.810Z,101426.36
2018-10-05T11:16:57.347Z,101420.37
2018-10-05T11:19:30.311Z,101425.29
2018-10-05T11:22:00.044Z,101411.03
2018-10-05T11:24:33.045Z,101413.49
2018-10-05T11:27:09.439Z,101406.50
2018-10-05T11:29:38.951Z,101405.97
2018-10-05T11:32:14.787Z,101396.16
2018-10-05T11:34:49.208Z,101393.55
2018-10-05T11:37:18.711Z,101398.16
2018-10-05T11:39:47.841Z,101393.88
2018-10-05T11:42:27.038Z,101395.80
2018-10-05T11:44:56.474Z,101387.88
2018-10-05T11:47:26.143Z,101378.78
2018-10-05T11:49:59.250Z,101376.53
2018-10-05T11:52:32.388Z,101373.27
2018-10-05T11:55:01.687Z,101364.86
2018-10-05T11:57:31.205Z,101357.19
2018-10-05T12:00:00.758Z,101357.62
2018-10-05T12:02:31.367Z,101357.72
2018-10-05T12:05:00.506Z,101350.89
2018-10-05T12:07:35.421Z,101345.78
2018-10-05T12:10:12.081Z,101344.20
2018-10-05T12:12:57.053Z,101340.47
2018-10-05T12:15:25.986Z,101333.71
2018-10-05T12:17:56.925Z,101333.73
2018-10-05T12:20:25.945Z,101330.45
2018-10-05T12:22:54.924Z,101326.35
2018-10-05T12:25:31.331Z,101322.25
2018-10-05T12:28:00.694Z,101309.69
2018-10-05T12:30:32.215Z,101311.61
2018-10-05T12:33:02.914Z,101305.59
2018-10-05T12:35:32.335Z,101300.68
2018-10-05T12:38:01.897Z,101299.89
2018-10-05T12:40:36.439Z,101293.83
2018-10-05T12:43:13.123Z,101293.28
2018-10-05T12:45:46.127Z,101286.41
2018-10-05T12:48:15.149Z,101285.87
2018-10-05T12:50:56.842Z,101279.78
2018-10-05T12:53:29.638Z,101284.13
2018-10-05T12:55:58.631Z,101284.44
2018-10-05T12:58:28.645Z,101275.42
2018-10-05T13:00:58.555Z,101272.93
2018-10-05T13:03:27.548Z,101270.48
2018-10-05T13:05:56.983Z,101265.83
2018-10-05T13:08:29.773Z,101266.09
2018-10-05T13:11:01.964Z,101263.40
2018-10-05T13:13:31.948Z,101257.69
2018-10-05T13:16:07.169Z,101255.46
2018-10-05T13:18:37.334Z,101252.43
2018-10-05T13:21:07.313Z,101249.95
2018-10-05T13:23:38.468Z,101246.13
2018-10-05T13:26:09.966Z,101245.59
2018-10-05T13:28:46.866Z,101246.44
2018-10-05T13:31:17.730Z,101242.34
2018-10-05T13:33:50.188Z,101240.48
2018-10-05T13:36:21.138Z,101237.98
2018-10-05T13:38:50.225Z,101233.90
2018-10-05T13:41:19.220Z,101226.20
2018-10-05T13:43:48.216Z,101216.69
2018-10-05T13:46:20.673Z,101221.92
2018-10-05T13:48:49.679Z,101213.45
2018-10-05T13:51:19.590Z,101218.06
2018-10-05T13:53:48.565Z,101211.46
2018-10-05T13:56:19.541Z,101212.28
2018-10-05T13:58:51.558Z,101201.86
2018-10-05T14:01:28.880Z,101201.58
2018-10-05T14:03:59.811Z,101190.38
2018-10-05T14:06:30.827Z,101193.64
2018-10-05T14:08:59.877Z,101184.96
2018-10-05T14:11:30.887Z,101184.12
2018-10-05T14:13:59.907Z,101179.23
2018-10-05T14:16:34.599Z,101175.14
2018-10-05T14:19:04.847Z,101178.67
2018-10-05T14:21:37.362Z,101169.11
2018-10-05T14:24:10.432Z,101163.34
2018-10-05T14:26:43.967Z,101155.66
2018-10-05T14:29:12.997Z,101161.11
2018-10-05T14:31:43.046Z,101152.92
2018-10-05T14:34:12.513Z,101154.61
2018-10-05T14:36:42.536Z,101151.05
2018-10-05T14:39:13.468Z,101150.21
2018-10-05T14:41:43.483Z,101144.17
2018-10-05T14:44:12.406Z,101145.03
2018-10-05T14:46:41.368Z,101136.02
2018-10-05T14:49:10.347Z,101128.58
2018-10-05T14:51:45.328Z,101128.55
2018-10-05T14:54:17.842Z,101124.47
2018-10-05T14:56:51.406Z,101120.05
2018-10-05T14:59:23.309Z,101111.56
2018-10-05T15:01:53.268Z,101114.89
2018-10-05T15:04:22.266Z,101098.76
2018-10-05T15:06:51.219Z,101097.68
2018-10-05T15:09:24.469Z,101094.73
2018-10-05T15:11:53.395Z,101094.98
2018-10-05T15:14:24.874Z,101093.89
2018-10-05T15:16:53.948Z,101087.08
2018-10-05T15:19:23.068Z,101079.64
2018-10-05T15:21:54.563Z,101087.05
2018-10-05T15:24:23.523Z,101078.61
2018-10-05T15:26:54.943Z,101078.59
2018-10-05T15:29:25.261Z,101079.17
2018-10-05T15:31:54.307Z,101069.07
2018-10-05T15:34:25.720Z,101063.34
2018-10-05T15:36:58.551Z,101064.16
2018-10-05T15:39:27.522Z,101057.61
2018-10-05T15:41:57.030Z,101052.70
2018-10-05T15:44:29.673Z,101055.16
2018-10-05T15:47:07.724Z,101050.23
2018-10-05T15:49:39.431Z,101055.42
2018-10-05T15:52:08.448Z,101061.47
2018-10-05T15:54:37.424Z,101055.73
2018-10-05T15:57:07.516Z,101057.11
2018-10-05T15:59:37.025Z,101057.39
2018-10-05T16:02:05.948Z,101057.69
2018-10-05T16:04:34.977Z,101059.34
2018-10-05T16:07:04.938Z,101062.91
2018-10-05T16:09:33.810Z,101063.47
2018-10-05T16:12:08.485Z,101064.02
2018-10-05T16:14:37.583Z,101064.04
2018-10-05T16:17:06.666Z,101066.23
2018-10-05T16:19:36.257Z,101065.44
2018-10-05T16:22:05.924Z,101063.52
2018-10-05T16:24:38.742Z,101072.27
2018-10-05T16:27:12.682Z,101072.80
2018-10-05T16:29:43.925Z,101074.17
2018-10-05T16:32:13.480Z,101083.97
2018-10-05T16:34:43.671Z,101075.26
2018-10-05T16:37:14.701Z,101076.34
2018-10-05T16:39:50.360Z,101082.08
2018-10-05T16:42:19.363Z,101074.69
2018-10-05T16:44:48.299Z,101069.50
2018-10-05T16:47:21.309Z,101070.56
2018-10-05T16:52:47.510Z,101071.58
2018-10-05T16:55:16.443Z,101071.27
2018-10-05T16:57:51.803Z,101073.16
2018-10-05T17:00:21.701Z,101071.22
2018-10-05T17:02:50.766Z,101064.37
2018-10-05T17:05:23.932Z,101065.41
2018-10-05T17:07:53.987Z,101070.58
2018-10-05T17:10:23.933Z,101065.89
2018-10-05T17:12:58.776Z,101068.88
2018-10-05T17:15:33.592Z,101069.12
2018-10-05T17:18:02.542Z,101066.37
2018-10-05T17:20:32.540Z,101066.34
2018-10-05T17:23:20.494Z,101060.08
2018-10-05T17:25:49.414Z,101056.28
2018-10-05T17:28:20.399Z,101054.36
2018-10-05T17:30:55.119Z,101047.80
2018-10-05T17:33:28.846Z,101048.80
2018-10-05T17:35:57.772Z,101049.86
2018-10-05T17:38:34.678Z,101052.86
2018-10-05T17:41:09.147Z,101050.39
2018-10-05T17:43:41.933Z,101052.76
2018-10-05T17:46:18.013Z,101047.28
2018-10-05T17:48:46.897Z,101049.68
2018-10-05T17:51:15.787Z,101046.42
2018-10-05T17:53:47.125Z,101043.66
2018-10-05T17:56:19.643Z,101049.81
2018-10-05T17:58:48.666Z,101053.59
2018-10-05T18:01:28.682Z,101045.67
2018-10-05T18:03:58.719Z,101044.83
2018-10-05T18:06:31.782Z,101046.43
2018-10-05T18:09:02.348Z,101037.41
2018-10-05T18:11:35.372Z,101031.66
2018-10-05T18:14:08.694Z,101027.49
2018-10-05T18:16:40.131Z,101018.22
2018-10-05T18:19:10.649Z,101023.55
2018-10-05T18:21:40.052Z,101020.73
2018-10-05T18:24:13.318Z,101026.13
2018-10-05T18:26:43.790Z,101023.13
2018-10-05T18:29:14.434Z,101024.22
2018-10-05T18:31:45.019Z,101025.06
2018-10-05T18:34:18.743Z,101017.34
2018-10-05T18:37:00.898Z,101024.95
2018-10-05T18:39:34.580Z,101019.13
2018-10-05T18:42:15.943Z,101011.98
2018-10-05T18:44:49.245Z,101011.10
2018-10-05T18:47:23.710Z,101012.60
2018-10-05T18:49:56.386Z,101005.81
2018-10-05T18:52:25.844Z,101002.66
2018-10-05T18:54:56.999Z,100995.52
2018-10-05T18:57:30.408Z,100995.89
2018-10-05T19:00:00.337Z,100991.55
2018-10-05T19:02:29.829Z,100982.98
2018-10-05T19:05:03.552Z,100982.48
2018-10-05T19:07:34.786Z,100982.48
2018-10-05T19:10:04.216Z,100984.68
2018-10-05T19:12:38.763Z,100986.98
2018-10-05T19:15:09.442Z,100989.16
2018-10-05T19:17:38.604Z,100990.22
2018-10-05T19:20:08.554Z,100982.37
2018-10-05T19:22:39.477Z,100975.27
2018-10-05T19:25:08.570Z,100982.27
2018-10-05T19:27:38.490Z,100986.37
2018-10-05T19:30:07.378Z,100975.43
2018-10-05T19:32:36.391Z,100982.54
2018-10-05T19:35:05.460Z,100970.55
2018-10-05T19:37:34.439Z,100971.86
2018-10-05T19:40:03.412Z,100969.92
2018-10-05T19:42:32.369Z,100976.42
2018-10-05T19:45:02.433Z,100971.28
2018-10-05T19:47:31.363Z,100967.18
2018-10-05T19:50:00.431Z,100964.09
2018-10-05T19:52:29.706Z,100964.83
2018-10-05T19:55:01.916Z,100963.48
2018-10-05T19:57:31.879Z,100961.67
2018-10-05T20:00:13.509Z,100968.78
2018-10-05T20:02:44.952Z,100963.03
2018-10-05T20:05:15.179Z,100957.83
2018-10-05T20:07:44.323Z,100965.48
2018-10-05T20:10:13.481Z,100960.55
2018-10-05T20:12:45.664Z,100965.45
2018-10-05T20:15:16.680Z,100964.57
2018-10-05T20:17:51.799Z,100960.52
2018-10-05T20:20:26.477Z,100959.42
2018-10-05T20:23:15.690Z,100962.61
2018-10-05T20:25:52.606Z,100960.81
2018-10-05T20:28:26.457Z,100962.20
2018-10-05T20:30:56.517Z,100962.09
2018-10-05T20:33:43.667Z,100959.89
2018-10-05T20:36:12.956Z,100959.32
2018-10-05T20:38:54.398Z,100958.97
2018-10-05T20:41:25.309Z,100958.45
2018-10-05T20:44:11.892Z,100960.30
2018-10-05T20:46:41.633Z,100958.92
2018-10-05T20:49:21.350Z,100956.98
2018-10-05T20:51:52.944Z,100965.91
2018-10-05T20:54:27.104Z,100965.27
2018-10-05T20:57:00.550Z,100966.53
2018-10-05T20:59:34.369Z,100960.30
2018-10-05T21:02:03.345Z,100961.95
2018-10-05T21:04:32.360Z,100957.88
2018-10-05T21:07:01.461Z,100966.60
2018-10-05T21:09:30.366Z,100963.11
2018-10-05T21:11:59.354Z,100959.81
2018-10-05T21:14:28.282Z,100961.48
2018-10-05T21:17:09.837Z,100963.11
2018-10-05T21:19:43.647Z,100957.67
2018-10-05T21:22:18.930Z,100953.83
2018-10-05T21:24:51.433Z,100957.36
2018-10-05T21:27:22.470Z,100955.42
2018-10-05T21:30:01.416Z,100954.61
2018-10-05T21:32:34.653Z,100956.75
2018-10-05T21:35:03.825Z,100954.78
2018-10-05T21:37:34.169Z,100956.39
2018-10-05T21:40:03.267Z,100956.10
2018-10-05T21:42:34.293Z,100958.47
2018-10-05T21:45:07.915Z,100957.49
2018-10-05T21:47:42.543Z,100958.59
2018-10-05T21:50:33.433Z,100956.04
2018-10-05T21:53:08.517Z,100951.61
2018-10-05T21:55:37.532Z,100952.90
2018-10-05T21:58:13.033Z,100963.14
2018-10-05T22:00:44.046Z,100957.39
2018-10-05T22:03:13.042Z,100957.55
2018-10-05T22:05:45.958Z,100959.20
2018-10-05T22:11:12.492Z,100955.35
2018-10-05T22:13:41.491Z,100953.41
2018-10-05T22:16:21.496Z,100954.63
2018-10-05T22:19:00.293Z,100950.48
2018-10-05T22:21:29.525Z,100953.16
2018-10-05T22:24:02.213Z,100950.01
2018-10-05T22:26:36.583Z,100942.97
2018-10-05T22:29:07.535Z,100939.78
2018-10-05T22:31:48.496Z,100944.44
2018-10-05T22:34:35.653Z,100939.09
2018-10-05T22:37:04.764Z,100941.77
2018-10-05T22:39:52.277Z,100932.02
2018-10-05T22:42:21.220Z,100935.78
2018-10-05T22:44:50.103Z,100943.45
2018-10-05T22:47:19.136Z,100939.53
2018-10-05T22:49:54.220Z,100943.63
2018-10-05T22:52:25.358Z,100938.13
2018-10-05T22:54:59.162Z,100936.52
2018-10-05T22:57:30.181Z,100934.69
2018-10-05T23:00:05.889Z,100935.85
2018-10-05T23:02:38.109Z,100938.05
2018-10-05T23:05:07.521Z,100927.81
2018-10-05T23:07:37.474Z,100930.38
2018-10-05T23:10:11.999Z,100935.03
2018-10-05T23:12:46.404Z,100929.87
2018-10-05T23:18:14.492Z,100929.56
2018-10-05T23:20:44.382Z,100931.69
2018-10-05T23:23:17.123Z,100928.43
2018-10-05T23:25:52.452Z,100917.20
2018-10-05T23:28:22.475Z,100919.16
2018-10-05T23:30:56.880Z,100915.39
2018-10-05T23:33:39.057Z,100917.97
2018-10-05T23:36:08.080Z,100912.47
2018-10-05T23:38:53.605Z,100917.45
2018-10-05T23:41:22.771Z,100910.20
2018-10-05T23:43:53.680Z,100909.03
2018-10-05T23:46:39.224Z,100910.09
2018-10-05T23:49:08.198Z,100909.04
2018-10-05T23:51:37.163Z,100909.38
2018-10-05T23:54:06.251Z,100912.93
2018-10-05T23:56:35.102Z,100913.45
2018-10-05T23:59:03.990Z,100905.82
